MSLP Airport Information

Runway Information
Runway 07 Length 10500 ft width 148 ft
Elevation 77 ft Threshold 0 ft Heading 70
Runway 25 Length 10500 ft Width 148 ft
Elevation 99 ft Threshold 0 ft Heading 250
Runway 18 Length 2625 ft width 75 ft
Elevation 101 ft Threshold 0 ft Heading 180
Runway 36 Length 2625 ft Width 75 ft
Elevation 123 ft Threshold 0 ft Heading 360
Airport Frequencies
Type APP Name APP Frequency 119.9 MHZ
Type ATIS Name ATIS Frequency 127.6 MHZ
Type CLD Name CLNC DEL Frequency 121.25 MHZ
Type GND Name GND Frequency 121.7 MHZ
Type RDO Name RDO Frequency 126.9 MHZ
Type TWR Name TWR Frequency 118 MHZ
Airport Navaids
Type VOR-DME Name El Salvador Frequency 117500 KHZ
Type NDB Name Amatecampo Frequency 331 KHZ
Airport Weather Information & NOTAM
ADDS - METARS form results

(2231 UTC 20 June 2018)
 
METAR text: MSLP 202150Z 20005KT 170V230 9999 FEW023 FEW037CB 30/23 Q1010 A2985 NOSIG CB N-NE-NW
Conditions at: MSLP (EL SALVADOR INT , SV) observed 2150 UTC 20 June 2018
Temperature: 30.0°C (86°F)
Dewpoint: 23.0°C (73°F) [RH = 66%]
Pressure (altimeter): 29.82 inches Hg (1010.0 mb)
Winds: from the SSW (200 degrees) at 6 MPH (5 knots; 2.6 m/s)
Visibility: 6 or more miles (10+ km)
Ceiling: at least 12,000 feet AGL
Clouds: few clouds at 2300 feet AGL
few clouds at 3700 feet AGL
Weather: no significant weather observed at this time